createdAt,value
2023-04-28T00:01:08.315Z,100223.17
2023-04-28T00:03:37.521Z,100215.17
2023-04-28T00:06:07.369Z,100217.76
2023-04-28T00:08:36.750Z,100212.83
2023-04-28T00:11:10.918Z,100220.50
2023-04-28T00:13:40.430Z,100211.80
2023-04-28T00:16:09.263Z,100219.47
2023-04-28T00:18:38.630Z,100216.41
2023-04-28T00:21:08.462Z,100227.84
2023-04-28T00:23:37.164Z,100228.55
2023-04-28T00:26:06.316Z,100232.65
2023-04-28T00:28:35.587Z,100236.22
2023-04-28T00:31:13.573Z,100237.59
2023-04-28T00:33:42.494Z,100243.42
2023-04-28T00:36:12.138Z,100239.00
2023-04-28T00:38:41.440Z,100248.55
2023-04-28T00:41:12.833Z,100242.77
2023-04-28T00:43:47.199Z,100237.49
2023-04-28T00:46:23.043Z,100243.47
2023-04-28T00:48:52.783Z,100242.62
2023-04-28T00:51:23.459Z,100243.63
2023-04-28T00:53:53.928Z,100246.54
2023-04-28T00:56:22.744Z,100259.34
2023-04-28T00:58:52.168Z,100260.52
2023-04-28T01:01:22.217Z,100271.44
2023-04-28T01:03:51.561Z,100269.08
2023-04-28T01:06:22.119Z,100268.75
2023-04-28T01:08:51.507Z,100273.51
2023-04-28T01:11:20.726Z,100271.48
2023-04-28T01:14:08.537Z,100273.88
2023-04-28T01:16:39.999Z,100268.42
2023-04-28T01:19:09.178Z,100274.58
2023-04-28T01:21:39.810Z,100270.34
2023-04-28T01:24:20.097Z,100278.02
2023-04-28T01:26:48.915Z,100271.37
2023-04-28T01:29:17.472Z,100275.14
2023-04-28T01:31:47.638Z,100276.36
2023-04-28T01:34:17.805Z,100280.45
2023-04-28T01:36:47.399Z,100277.06
2023-04-28T01:39:17.722Z,100276.91
2023-04-28T01:41:47.527Z,100285.28
2023-04-28T01:44:16.853Z,100284.63
2023-04-28T01:46:46.071Z,100288.90
2023-04-28T01:49:15.806Z,100291.44
2023-04-28T01:51:44.851Z,100281.89
2023-04-28T01:54:14.747Z,100276.95
2023-04-28T01:56:44.878Z,100278.50
2023-04-28T01:59:17.177Z,100269.47
2023-04-28T02:01:46.804Z,100275.11
2023-04-28T02:04:16.975Z,100272.42
2023-04-28T02:06:46.916Z,100277.91
2023-04-28T02:09:16.240Z,100284.40
2023-04-28T02:11:45.944Z,100278.09
2023-04-28T02:14:14.705Z,100276.40
2023-04-28T02:16:44.607Z,100286.13
2023-04-28T02:19:14.057Z,100290.59
2023-04-28T02:21:43.381Z,100291.29
2023-04-28T02:24:12.403Z,100300.69
2023-04-28T02:26:41.192Z,100301.05
2023-04-28T02:29:10.357Z,100300.72
2023-04-28T02:31:39.445Z,100300.38
2023-04-28T02:34:08.451Z,100296.45
2023-04-28T02:36:38.032Z,100297.14
2023-04-28T02:39:06.827Z,100293.75
2023-04-28T02:41:36.455Z,100294.27
2023-04-28T02:44:05.528Z,100290.02
2023-04-28T02:46:34.872Z,100287.14
2023-04-28T02:49:04.261Z,100298.75
2023-04-28T02:51:34.541Z,100302.69
2023-04-28T02:54:05.611Z,100304.23
2023-04-28T02:56:37.062Z,100308.84
2023-04-28T02:59:07.789Z,100310.20
2023-04-28T03:01:37.773Z,100313.44
2023-04-28T03:04:08.162Z,100315.50
2023-04-28T03:06:37.517Z,100317.05
2023-04-28T03:09:06.589Z,100324.38
2023-04-28T03:11:35.772Z,100330.34
2023-04-28T03:14:05.403Z,100334.44
2023-04-28T03:16:34.594Z,100336.48
2023-04-28T03:19:03.769Z,100343.64
2023-04-28T03:21:33.876Z,100349.27
2023-04-28T03:24:05.426Z,100353.88
2023-04-28T03:26:34.345Z,100353.88
2023-04-28T03:29:03.834Z,100360.52
2023-04-28T03:31:33.490Z,100357.45
2023-04-28T03:34:04.341Z,100359.67
2023-04-28T03:36:32.906Z,100366.48
2023-04-28T03:39:03.975Z,100375.52
2023-04-28T03:41:33.607Z,100370.23
2023-04-28T03:44:23.366Z,100378.42
2023-04-28T03:46:54.148Z,100374.33
2023-04-28T03:49:22.987Z,100389.16
2023-04-28T03:51:52.184Z,100387.64
2023-04-28T03:54:22.005Z,100386.97
2023-04-28T03:56:51.407Z,100385.79
2023-04-28T03:59:20.525Z,100388.69
2023-04-28T04:01:52.466Z,100394.16
2023-04-28T04:04:22.160Z,100383.95
2023-04-28T04:06:55.375Z,100390.77
2023-04-28T04:09:26.755Z,100392.47
2023-04-28T04:11:55.828Z,100390.43
2023-04-28T04:14:24.702Z,100394.19
2023-04-28T04:16:55.246Z,100397.94
2023-04-28T04:19:26.077Z,100391.14
2023-04-28T04:21:58.138Z,100400.17
2023-04-28T04:24:28.067Z,100399.31
2023-04-28T04:26:57.491Z,100395.56
2023-04-28T04:29:35.835Z,100402.17
2023-04-28T04:32:07.390Z,100405.07
2023-04-28T04:34:37.308Z,100409.31
2023-04-28T04:37:06.956Z,100408.29
2023-04-28T04:39:37.751Z,100406.91
2023-04-28T04:42:22.636Z,100404.34
2023-04-28T04:44:46.571Z,100405.34
2023-04-28T04:47:23.852Z,100406.00
2023-04-28T04:49:53.320Z,100407.85
2023-04-28T04:52:22.679Z,100408.19
2023-04-28T04:54:53.153Z,100414.98
2023-04-28T04:57:22.827Z,100407.11
2023-04-28T05:00:08.025Z,100405.73
2023-04-28T05:02:37.498Z,100408.28
2023-04-28T05:05:20.316Z,100414.05
2023-04-28T05:07:41.739Z,100414.69
2023-04-28T05:10:13.149Z,100415.66
2023-04-28T05:12:46.147Z,100411.18
2023-04-28T05:15:15.958Z,100416.24
2023-04-28T05:17:47.847Z,100415.70
2023-04-28T05:20:18.262Z,100416.48
2023-04-28T05:22:48.220Z,100418.19
2023-04-28T05:25:17.750Z,100412.88
2023-04-28T05:27:47.200Z,100422.58
2023-04-28T05:30:16.239Z,100421.88
2023-04-28T05:32:47.084Z,100423.24
2023-04-28T05:35:18.221Z,100424.24
2023-04-28T05:37:49.345Z,100424.42
2023-04-28T05:40:18.594Z,100426.83
2023-04-28T05:42:49.146Z,100423.91
2023-04-28T05:45:19.575Z,100423.58
2023-04-28T05:47:50.223Z,100424.24
2023-04-28T05:50:19.794Z,100428.00
2023-04-28T05:52:48.621Z,100432.73
2023-04-28T05:55:19.631Z,100430.48
2023-04-28T05:57:53.147Z,100430.27
2023-04-28T06:00:22.010Z,100429.52
2023-04-28T06:02:53.054Z,100424.53
2023-04-28T06:05:22.990Z,100422.43
2023-04-28T06:07:55.883Z,100415.00
2023-04-28T06:10:26.548Z,100416.94
2023-04-28T06:12:56.217Z,100414.45
2023-04-28T06:15:25.365Z,100412.31
2023-04-28T06:17:54.799Z,100408.78
2023-04-28T06:20:24.172Z,100412.59
2023-04-28T06:22:53.600Z,100411.59
2023-04-28T06:25:23.720Z,100417.29
2023-04-28T06:27:54.648Z,100418.44
2023-04-28T06:30:24.577Z,100418.00
2023-04-28T06:32:54.305Z,100416.70
2023-04-28T06:35:24.543Z,100410.75
2023-04-28T06:37:54.816Z,100413.37
2023-04-28T06:40:24.271Z,100422.18
2023-04-28T06:42:57.546Z,100430.43
2023-04-28T06:45:30.056Z,100420.28
2023-04-28T06:48:00.103Z,100424.73
2023-04-28T06:50:30.614Z,100421.16
2023-04-28T06:52:59.845Z,100438.05
2023-04-28T06:55:31.691Z,100421.69
2023-04-28T06:58:01.435Z,100429.05
2023-04-28T07:00:30.986Z,100433.91
2023-04-28T07:03:00.877Z,100424.59
2023-04-28T07:05:31.843Z,100441.03
2023-04-28T07:08:02.556Z,100436.39
2023-04-28T07:10:31.506Z,100433.37
2023-04-28T07:13:00.677Z,100435.62
2023-04-28T07:15:31.804Z,100432.42
2023-04-28T07:18:00.977Z,100432.28
2023-04-28T07:20:31.360Z,100442.45
2023-04-28T07:23:05.310Z,100445.39
2023-04-28T07:25:35.061Z,100438.72
2023-04-28T07:28:04.258Z,100438.63
2023-04-28T07:30:34.255Z,100447.30
2023-04-28T07:33:04.139Z,100456.81
2023-04-28T07:35:34.006Z,100438.30
2023-04-28T07:38:04.490Z,100441.83
2023-04-28T07:40:35.144Z,100449.34
2023-04-28T07:43:03.965Z,100449.19
2023-04-28T07:45:33.291Z,100443.96
2023-04-28T07:48:03.282Z,100447.05
2023-04-28T07:50:34.066Z,100458.41
2023-04-28T07:53:05.068Z,100443.52
2023-04-28T07:55:34.460Z,100460.40
2023-04-28T07:58:04.166Z,100453.13
2023-04-28T08:00:34.066Z,100448.52
2023-04-28T08:03:04.470Z,100438.73
2023-04-28T08:05:33.537Z,100444.33
2023-04-28T08:08:02.832Z,100441.42
2023-04-28T08:10:33.063Z,100447.39
2023-04-28T08:13:02.805Z,100444.09
2023-04-28T08:15:31.599Z,100443.72
2023-04-28T08:18:00.405Z,100454.31
2023-04-28T08:20:30.466Z,100441.69
2023-04-28T08:22:59.255Z,100442.25
2023-04-28T08:25:27.865Z,100439.78
2023-04-28T08:27:57.609Z,100446.53
2023-04-28T08:30:26.474Z,100450.64
2023-04-28T08:32:55.739Z,100447.95
2023-04-28T08:35:24.380Z,100445.34
2023-04-28T08:37:53.502Z,100441.11
2023-04-28T08:40:25.075Z,100447.76
2023-04-28T08:42:54.635Z,100445.05
2023-04-28T08:45:27.204Z,100437.06
2023-04-28T08:47:56.213Z,100446.42
2023-04-28T08:50:25.033Z,100434.58
2023-04-28T08:52:53.856Z,100447.66
2023-04-28T08:55:23.221Z,100446.28
2023-04-28T08:57:52.402Z,100434.14
2023-04-28T09:00:21.298Z,100433.58
2023-04-28T09:02:51.242Z,100446.43
2023-04-28T09:05:21.013Z,100442.43
2023-04-28T09:07:51.904Z,100433.77
2023-04-28T09:10:23.698Z,100445.08
2023-04-28T09:12:54.899Z,100441.95
2023-04-28T09:15:36.565Z,100436.22
2023-04-28T09:18:09.129Z,100440.91
2023-04-28T09:20:38.569Z,100438.66
2023-04-28T09:23:22.150Z,100443.95
2023-04-28T09:26:03.182Z,100445.97
2023-04-28T09:28:35.585Z,100452.83
2023-04-28T09:31:05.124Z,100435.03
2023-04-28T09:33:34.929Z,100443.78
2023-04-28T09:36:06.220Z,100447.43
2023-04-28T09:38:39.703Z,100445.78
2023-04-28T09:41:09.311Z,100444.55
2023-04-28T09:43:38.267Z,100429.87
2023-04-28T09:46:06.726Z,100432.37
2023-04-28T09:48:39.521Z,100440.27
2023-04-28T09:51:11.563Z,100444.02
2023-04-28T09:53:40.831Z,100451.23
2023-04-28T09:56:09.491Z,100432.77
2023-04-28T09:58:40.171Z,100429.61
2023-04-28T10:01:10.449Z,100431.83
2023-04-28T10:03:41.230Z,100443.40
2023-04-28T10:06:10.448Z,100435.12
2023-04-28T10:08:39.992Z,100451.51
2023-04-28T10:11:09.757Z,100446.63
2023-04-28T10:13:39.077Z,100453.87
2023-04-28T10:16:08.699Z,100447.83
2023-04-28T10:18:38.091Z,100446.94
2023-04-28T10:21:07.757Z,100435.77
2023-04-28T10:24:17.609Z,100423.98
2023-04-28T10:27:00.913Z,100422.51
2023-04-28T10:29:29.933Z,100430.53
2023-04-28T10:32:18.753Z,100442.94
2023-04-28T10:34:48.259Z,100446.37
2023-04-28T10:37:18.961Z,100441.80
2023-04-28T10:40:31.987Z,100449.44
2023-04-28T10:43:00.927Z,100438.77
2023-04-28T10:46:01.472Z,100443.39
2023-04-28T10:48:51.750Z,100454.32
2023-04-28T10:51:25.508Z,100441.04
2023-04-28T10:54:02.831Z,100429.27
2023-04-28T10:56:35.219Z,100435.88
2023-04-28T10:59:27.983Z,100430.97
2023-04-28T11:02:01.300Z,100432.81
2023-04-28T11:04:30.347Z,100441.33
2023-04-28T11:07:14.003Z,100436.01
2023-04-28T11:09:49.598Z,100444.87
2023-04-28T11:12:19.324Z,100443.90
2023-04-28T11:14:48.236Z,100439.14
2023-04-28T11:17:19.127Z,100435.98
2023-04-28T11:19:51.036Z,100434.26
2023-04-28T11:22:23.129Z,100418.75
2023-04-28T11:25:03.693Z,100420.35
2023-04-28T11:27:38.831Z,100425.67
2023-04-28T11:30:25.678Z,100431.41
2023-04-28T11:33:00.020Z,100431.72
2023-04-28T11:35:34.314Z,100422.70
2023-04-28T11:38:06.345Z,100416.56
2023-04-28T11:40:35.827Z,100415.54
2023-04-28T11:43:06.365Z,100419.70
2023-04-28T11:45:35.086Z,100429.44
2023-04-28T11:48:22.582Z,100423.98
2023-04-28T11:50:51.811Z,100420.09
2023-04-28T11:53:24.444Z,100409.13
2023-04-28T11:56:00.585Z,100416.41
2023-04-28T11:58:30.116Z,100415.20
2023-04-28T12:01:15.499Z,100407.68
2023-04-28T12:03:48.073Z,100414.34
2023-04-28T12:06:20.940Z,100401.30
2023-04-28T12:08:52.468Z,100402.89
2023-04-28T12:11:22.702Z,100401.88
2023-04-28T12:14:06.445Z,100403.47
2023-04-28T12:16:42.914Z,100402.10
2023-04-28T12:19:12.451Z,100396.41
2023-04-28T12:21:41.617Z,100402.45
2023-04-28T12:24:21.276Z,100383.08
2023-04-28T12:26:50.891Z,100398.86
2023-04-28T12:29:41.561Z,100399.26
2023-04-28T12:32:11.398Z,100407.62
2023-04-28T12:34:41.804Z,100400.63
2023-04-28T12:37:12.533Z,100406.98
2023-04-28T12:39:43.122Z,100401.39
2023-04-28T12:42:12.412Z,100416.59
2023-04-28T12:44:42.499Z,100404.32
2023-04-28T12:47:12.193Z,100407.02
2023-04-28T12:49:41.653Z,100412.91
2023-04-28T12:52:10.413Z,100408.40
2023-04-28T12:54:41.737Z,100407.68
2023-04-28T12:57:12.927Z,100402.30
2023-04-28T12:59:46.572Z,100408.45
2023-04-28T13:02:25.603Z,100406.23
2023-04-28T13:04:55.917Z,100405.41
2023-04-28T13:07:25.725Z,100410.72
2023-04-28T13:09:56.414Z,100407.97
2023-04-28T13:12:25.602Z,100410.41
2023-04-28T13:14:54.743Z,100406.59
2023-04-28T13:17:23.694Z,100402.34
2023-04-28T13:19:52.234Z,100398.42
2023-04-28T13:22:21.719Z,100399.17
2023-04-28T13:24:50.616Z,100404.27
2023-04-28T13:27:19.699Z,100401.20
2023-04-28T13:29:48.939Z,100401.73
2023-04-28T13:32:18.506Z,100401.83
2023-04-28T13:34:47.596Z,100400.77
2023-04-28T13:37:16.587Z,100398.33
2023-04-28T13:39:45.382Z,100402.02
2023-04-28T13:42:15.932Z,100403.37
2023-04-28T13:44:46.689Z,100396.69
2023-04-28T13:47:16.047Z,100388.52
2023-04-28T13:49:44.573Z,100400.20
2023-04-28T13:52:13.880Z,100388.21
2023-04-28T13:54:42.840Z,100381.98
2023-04-28T13:57:13.263Z,100377.56
2023-04-28T13:59:42.280Z,100391.45
2023-04-28T14:02:11.703Z,100380.13
2023-04-28T14:04:40.631Z,100379.50
2023-04-28T14:07:10.291Z,100374.52
2023-04-28T14:09:43.047Z,100379.28
2023-04-28T14:12:13.408Z,100382.87
2023-04-28T14:14:42.442Z,100381.50
2023-04-28T14:17:12.433Z,100384.47
2023-04-28T14:19:41.973Z,100373.48
2023-04-28T14:22:11.656Z,100377.52
2023-04-28T14:24:42.699Z,100380.70
2023-04-28T14:27:12.426Z,100384.61
2023-04-28T14:29:43.565Z,100393.18
2023-04-28T14:32:16.379Z,100379.85
2023-04-28T14:34:46.252Z,100375.83
2023-04-28T14:37:16.307Z,100382.80
2023-04-28T14:39:45.316Z,100374.95
2023-04-28T14:42:14.025Z,100370.17
2023-04-28T14:44:42.730Z,100374.30
2023-04-28T14:47:11.488Z,100368.48
2023-04-28T14:49:40.631Z,100380.75
2023-04-28T14:52:10.491Z,100375.34
2023-04-28T14:54:39.523Z,100370.68
2023-04-28T14:57:08.504Z,100383.28
2023-04-28T14:59:39.095Z,100378.09
2023-04-28T15:02:25.853Z,100375.97
2023-04-28T15:04:57.917Z,100377.32
2023-04-28T15:07:29.109Z,100377.95
2023-04-28T15:09:59.645Z,100385.65
2023-04-28T15:12:30.801Z,100381.61
2023-04-28T15:14:59.557Z,100389.34
2023-04-28T15:17:28.633Z,100379.61
2023-04-28T15:19:57.568Z,100380.05
2023-04-28T15:22:27.148Z,100378.88
2023-04-28T15:24:56.089Z,100386.77
2023-04-28T15:27:25.101Z,100380.53
2023-04-28T15:29:53.864Z,100381.72
2023-04-28T15:32:24.765Z,100384.38
2023-04-28T15:34:53.621Z,100380.05
2023-04-28T15:37:42.265Z,100379.22
2023-04-28T15:40:13.490Z,100384.53
2023-04-28T15:42:44.410Z,100374.48
2023-04-28T15:45:13.510Z,100375.55
2023-04-28T15:47:43.861Z,100387.72
2023-04-28T15:50:13.070Z,100377.55
2023-04-28T15:52:44.096Z,100387.50
2023-04-28T15:55:21.178Z,100390.78
2023-04-28T15:57:49.465Z,100380.73
2023-04-28T16:00:18.117Z,100398.72
2023-04-28T16:02:47.451Z,100392.90
2023-04-28T16:05:16.806Z,100397.03
2023-04-28T16:07:47.878Z,100395.55
2023-04-28T16:10:17.614Z,100389.28
2023-04-28T16:12:47.692Z,100394.48
2023-04-28T16:15:17.230Z,100398.72
2023-04-28T16:17:46.313Z,100402.39
2023-04-28T16:20:15.192Z,100401.45
2023-04-28T16:22:44.117Z,100400.60
2023-04-28T16:25:13.709Z,100393.31
2023-04-28T16:27:42.911Z,100407.48
2023-04-28T16:30:12.131Z,100402.73
2023-04-28T16:32:41.704Z,100396.28
2023-04-28T16:35:14.521Z,100402.31
2023-04-28T16:37:44.716Z,100395.64
2023-04-28T16:40:15.237Z,100403.26
2023-04-28T16:42:45.382Z,100404.74
2023-04-28T16:45:14.631Z,100401.15
2023-04-28T16:47:44.749Z,100401.68
2023-04-28T16:50:14.905Z,100408.66
2023-04-28T16:52:43.871Z,100410.66
2023-04-28T16:55:12.858Z,100414.77
2023-04-28T16:57:42.069Z,100410.64
2023-04-28T17:00:13.546Z,100413.45
2023-04-28T17:02:44.296Z,100415.46
2023-04-28T17:05:13.796Z,100425.49
2023-04-28T17:07:43.822Z,100426.64
2023-04-28T17:10:13.583Z,100420.93
2023-04-28T17:12:44.471Z,100420.38
2023-04-28T17:15:19.523Z,100428.92
2023-04-28T17:17:52.815Z,100438.11
2023-04-28T17:20:22.055Z,100435.77
2023-04-28T17:22:52.798Z,100438.93
2023-04-28T17:25:24.205Z,100440.08
2023-04-28T17:27:54.306Z,100442.38
2023-04-28T17:30:25.390Z,100450.18
2023-04-28T17:32:55.810Z,100440.66
2023-04-28T17:35:25.644Z,100455.81
2023-04-28T17:37:55.620Z,100444.92
2023-04-28T17:40:25.658Z,100456.80
2023-04-28T17:42:57.962Z,100447.48
2023-04-28T17:45:26.773Z,100446.52
2023-04-28T17:48:00.568Z,100448.94
2023-04-28T17:50:30.294Z,100457.46
2023-04-28T17:52:59.186Z,100452.58
2023-04-28T17:55:32.362Z,100454.68
2023-04-28T17:58:01.417Z,100454.44
2023-04-28T18:00:30.859Z,100454.84
2023-04-28T18:03:01.067Z,100458.63
2023-04-28T18:05:31.150Z,100459.04
2023-04-28T18:08:03.422Z,100463.56
2023-04-28T18:10:32.818Z,100464.48
2023-04-28T18:13:02.909Z,100465.61
2023-04-28T18:15:32.447Z,100466.53
2023-04-28T18:18:01.539Z,100467.78
2023-04-28T18:20:30.935Z,100467.33
2023-04-28T18:23:00.153Z,100465.31
2023-04-28T18:25:31.187Z,100461.08
2023-04-28T18:28:00.352Z,100458.86
2023-04-28T18:30:38.560Z,100459.22
2023-04-28T18:33:08.369Z,100456.56
2023-04-28T18:35:41.690Z,100459.70
2023-04-28T18:38:12.073Z,100462.19
2023-04-28T18:40:40.929Z,100461.54
2023-04-28T18:43:13.175Z,100462.59
2023-04-28T18:45:43.380Z,100462.98
2023-04-28T18:48:13.476Z,100463.70
2023-04-28T18:50:43.332Z,100461.36
2023-04-28T18:53:12.648Z,100457.24
2023-04-28T18:55:42.224Z,100462.08
2023-04-28T18:58:11.716Z,100462.47
2023-04-28T19:00:41.901Z,100456.21
2023-04-28T19:03:11.679Z,100462.61
2023-04-28T19:05:43.280Z,100461.11
2023-04-28T19:08:12.723Z,100463.00
2023-04-28T19:10:41.492Z,100470.05
2023-04-28T19:13:10.787Z,100467.31
2023-04-28T19:15:40.342Z,100462.75
2023-04-28T19:18:09.150Z,100464.31
2023-04-28T19:20:38.103Z,100477.88
2023-04-28T19:23:06.941Z,100481.67
2023-04-28T19:25:37.367Z,100482.38
2023-04-28T19:28:09.911Z,100486.55
2023-04-28T19:30:39.146Z,100480.95
2023-04-28T19:33:08.204Z,100473.31
2023-04-28T19:35:38.177Z,100481.89
2023-04-28T19:38:08.689Z,100493.04
2023-04-28T19:40:38.974Z,100488.28
2023-04-28T19:43:07.996Z,100489.31
2023-04-28T19:45:38.613Z,100488.14
2023-04-28T19:48:08.056Z,100487.87
2023-04-28T19:50:38.043Z,100476.59
2023-04-28T19:53:08.426Z,100483.83
2023-04-28T19:55:37.322Z,100490.02
2023-04-28T19:58:06.636Z,100480.47
2023-04-28T20:00:36.638Z,100484.63
2023-04-28T20:03:07.858Z,100486.38
2023-04-28T20:05:39.952Z,100483.19
2023-04-28T20:08:09.317Z,100486.63
2023-04-28T20:10:39.971Z,100488.91
2023-04-28T20:13:09.176Z,100493.72
2023-04-28T20:15:38.175Z,100494.77
2023-04-28T20:18:08.258Z,100490.00
2023-04-28T20:20:37.403Z,100486.94
2023-04-28T20:23:06.628Z,100488.17
2023-04-28T20:25:37.363Z,100481.52
2023-04-28T20:28:07.356Z,100495.39
2023-04-28T20:30:37.628Z,100495.26
2023-04-28T20:33:07.306Z,100485.54
2023-04-28T20:35:38.516Z,100485.92
2023-04-28T20:38:07.888Z,100492.62
2023-04-28T20:40:38.627Z,100496.92
2023-04-28T20:43:07.811Z,100496.40
2023-04-28T20:45:36.377Z,100496.42
2023-04-28T20:48:07.189Z,100498.83
2023-04-28T20:50:39.502Z,100499.53
2023-04-28T20:53:09.011Z,100504.16
2023-04-28T20:55:39.112Z,100498.36
2023-04-28T20:58:08.388Z,100502.98
2023-04-28T21:00:39.164Z,100506.75
2023-04-28T21:03:08.080Z,100503.36
2023-04-28T21:05:37.001Z,100507.51
2023-04-28T21:08:06.347Z,100505.81
2023-04-28T21:10:35.935Z,100513.88
2023-04-28T21:13:06.858Z,100509.30
2023-04-28T21:15:38.020Z,100513.08
2023-04-28T21:18:06.806Z,100510.05
2023-04-28T21:20:35.765Z,100512.65
2023-04-28T21:23:05.045Z,100508.41
2023-04-28T21:25:34.152Z,100505.34
2023-04-28T21:28:03.104Z,100501.75
2023-04-28T21:30:32.407Z,100498.88
2023-04-28T21:33:01.660Z,100498.55
2023-04-28T21:35:30.752Z,100506.46
2023-04-28T21:38:00.034Z,100499.16
2023-04-28T21:40:29.172Z,100493.72
2023-04-28T21:42:58.132Z,100496.31
2023-04-28T21:45:28.166Z,100490.70
2023-04-28T21:47:58.938Z,100489.19
2023-04-28T21:50:27.967Z,100487.16
2023-04-28T21:52:59.022Z,100488.72
2023-04-28T21:55:28.329Z,100488.91
2023-04-28T21:58:00.129Z,100488.05
2023-04-28T22:00:30.319Z,100486.69
2023-04-28T22:03:03.127Z,100490.09
2023-04-28T22:05:33.853Z,100494.05
2023-04-28T22:08:03.868Z,100489.28
2023-04-28T22:10:34.190Z,100487.77
2023-04-28T22:13:03.571Z,100497.38
2023-04-28T22:15:33.093Z,100493.16
2023-04-28T22:18:02.674Z,100485.16
2023-04-28T22:20:32.508Z,100484.16
2023-04-28T22:23:01.206Z,100482.50
2023-04-28T22:25:32.139Z,100482.50
2023-04-28T22:28:01.244Z,100480.98
2023-04-28T22:30:33.621Z,100479.80
2023-04-28T22:33:03.919Z,100477.77
2023-04-28T22:35:33.707Z,100480.69
2023-04-28T22:38:02.820Z,100481.05
2023-04-28T22:40:32.468Z,100478.50
2023-04-28T22:43:01.525Z,100485.52
2023-04-28T22:45:30.857Z,100480.91
2023-04-28T22:48:01.122Z,100482.45
2023-04-28T22:50:31.281Z,100480.75
2023-04-28T22:53:01.196Z,100474.44
2023-04-28T22:55:30.734Z,100481.13
2023-04-28T22:58:01.153Z,100476.39
2023-04-28T23:00:30.751Z,100476.09
2023-04-28T23:02:59.636Z,100480.04
2023-04-28T23:05:28.552Z,100474.09
2023-04-28T23:07:57.335Z,100474.23
2023-04-28T23:10:26.699Z,100470.51
2023-04-28T23:12:55.400Z,100458.77
2023-04-28T23:15:24.830Z,100458.10
2023-04-28T23:17:53.876Z,100454.01
2023-04-28T23:20:22.627Z,100452.12
2023-04-28T23:22:52.444Z,100461.50
2023-04-28T23:25:22.524Z,100457.44
2023-04-28T23:27:51.424Z,100451.64
2023-04-28T23:30:20.750Z,100452.00
2023-04-28T23:32:50.216Z,100454.06
2023-04-28T23:35:19.287Z,100457.83
2023-04-28T23:37:49.124Z,100462.25
2023-04-28T23:40:18.623Z,100467.05
2023-04-28T23:42:48.104Z,100459.22
2023-04-28T23:45:17.714Z,100462.83
2023-04-28T23:47:47.466Z,100471.19
2023-04-28T23:50:17.825Z,100468.64
2023-04-28T23:52:46.819Z,100463.55
2023-04-28T23:55:15.731Z,100459.62
2023-04-28T23:57:46.107Z,100454.35
